sensor_id;sensor_type;location;lat;lon;timestamp;P1;durP1;ratioP1;P2;durP2;ratioP2
15681;SDS011;7941;50.966;6.978;2022-10-16T00:00:40;3.63;;;3.20;;
15681;SDS011;7941;50.966;6.978;2022-10-16T00:03:07;3.57;;;3.27;;
15681;SDS011;7941;50.966;6.978;2022-10-16T00:05:37;3.40;;;3.10;;
15681;SDS011;7941;50.966;6.978;2022-10-16T00:08:03;3.27;;;2.93;;
15681;SDS011;7941;50.966;6.978;2022-10-16T00:10:30;3.33;;;3.13;;
15681;SDS011;7941;50.966;6.978;2022-10-16T00:12:56;4.17;;;3.60;;
15681;SDS011;7941;50.966;6.978;2022-10-16T00:15:22;3.80;;;3.10;;
15681;SDS011;7941;50.966;6.978;2022-10-16T00:17:48;3.50;;;3.20;;
15681;SDS011;7941;50.966;6.978;2022-10-16T00:20:14;4.00;;;3.33;;
15681;SDS011;7941;50.966;6.978;2022-10-16T00:22:40;3.47;;;3.17;;
15681;SDS011;7941;50.966;6.978;2022-10-16T00:25:07;4.20;;;3.33;;
15681;SDS011;7941;50.966;6.978;2022-10-16T00:27:33;3.10;;;2.90;;
15681;SDS011;7941;50.966;6.978;2022-10-16T00:30:00;3.13;;;2.80;;
15681;SDS011;7941;50.966;6.978;2022-10-16T00:32:26;3.63;;;2.63;;
15681;SDS011;7941;50.966;6.978;2022-10-16T00:34:52;2.60;;;2.50;;
15681;SDS011;7941;50.966;6.978;2022-10-16T00:37:21;3.17;;;2.63;;
15681;SDS011;7941;50.966;6.978;2022-10-16T00:39:47;4.10;;;2.63;;
15681;SDS011;7941;50.966;6.978;2022-10-16T00:42:17;3.30;;;2.60;;
15681;SDS011;7941;50.966;6.978;2022-10-16T00:44:48;2.63;;;2.30;;
15681;SDS011;7941;50.966;6.978;2022-10-16T00:47:37;2.30;;;2.20;;
15681;SDS011;7941;50.966;6.978;2022-10-16T00:50:13;2.53;;;2.20;;
15681;SDS011;7941;50.966;6.978;2022-10-16T00:52:43;8.30;;;4.87;;
15681;SDS011;7941;50.966;6.978;2022-10-16T00:55:10;3.03;;;2.73;;
15681;SDS011;7941;50.966;6.978;2022-10-16T00:57:36;2.43;;;2.20;;
15681;SDS011;7941;50.966;6.978;2022-10-16T01:00:04;2.77;;;2.57;;
15681;SDS011;7941;50.966;6.978;2022-10-16T01:02:31;2.30;;;2.10;;
15681;SDS011;7941;50.966;6.978;2022-10-16T01:04:57;2.83;;;1.93;;
15681;SDS011;7941;50.966;6.978;2022-10-16T01:12:55;5.33;;;2.93;;
15681;SDS011;7941;50.966;6.978;2022-10-16T01:18:37;2.50;;;2.30;;
15681;SDS011;7941;50.966;6.978;2022-10-16T01:20:50;2.67;;;2.47;;
15681;SDS011;7941;50.966;6.978;2022-10-16T01:31:24;2.90;;;2.27;;
15681;SDS011;7941;50.966;6.978;2022-10-16T01:33:55;2.20;;;2.00;;
15681;SDS011;7941;50.966;6.978;2022-10-16T01:36:24;3.07;;;2.17;;
15681;SDS011;7941;50.966;6.978;2022-10-16T01:38:52;3.23;;;2.10;;
15681;SDS011;7941;50.966;6.978;2022-10-16T01:41:32;2.67;;;2.30;;
15681;SDS011;7941;50.966;6.978;2022-10-16T01:44:05;2.30;;;2.20;;
15681;SDS011;7941;50.966;6.978;2022-10-16T01:46:33;4.97;;;2.27;;
15681;SDS011;7941;50.966;6.978;2022-10-16T01:49:00;2.70;;;2.40;;
15681;SDS011;7941;50.966;6.978;2022-10-16T01:51:27;4.87;;;2.60;;
15681;SDS011;7941;50.966;6.978;2022-10-16T01:53:55;2.43;;;2.23;;
15681;SDS011;7941;50.966;6.978;2022-10-16T01:56:23;2.50;;;2.30;;
15681;SDS011;7941;50.966;6.978;2022-10-16T01:59:00;2.30;;;2.10;;
15681;SDS011;7941;50.966;6.978;2022-10-16T02:01:29;2.00;;;1.90;;
15681;SDS011;7941;50.966;6.978;2022-10-16T02:03:58;2.33;;;2.13;;
15681;SDS011;7941;50.966;6.978;2022-10-16T02:06:25;2.40;;;2.20;;
15681;SDS011;7941;50.966;6.978;2022-10-16T02:08:51;2.63;;;2.27;;
15681;SDS011;7941;50.966;6.978;2022-10-16T02:11:19;7.80;;;2.50;;
15681;SDS011;7941;50.966;6.978;2022-10-16T02:13:46;6.50;;;2.20;;
15681;SDS011;7941;50.966;6.978;2022-10-16T02:16:14;2.50;;;2.30;;
15681;SDS011;7941;50.966;6.978;2022-10-16T02:18:40;2.30;;;2.10;;
15681;SDS011;7941;50.966;6.978;2022-10-16T02:21:13;1.97;;;1.87;;
15681;SDS011;7941;50.966;6.978;2022-10-16T02:23:45;10.70;;;2.40;;
15681;SDS011;7941;50.966;6.978;2022-10-16T02:26:12;1.87;;;1.70;;
15681;SDS011;7941;50.966;6.978;2022-10-16T02:28:43;1.90;;;1.50;;
15681;SDS011;7941;50.966;6.978;2022-10-16T02:31:11;2.03;;;1.83;;
15681;SDS011;7941;50.966;6.978;2022-10-16T02:33:39;1.93;;;1.70;;
15681;SDS011;7941;50.966;6.978;2022-10-16T02:36:06;3.30;;;1.90;;
15681;SDS011;7941;50.966;6.978;2022-10-16T02:38:32;2.23;;;1.87;;
15681;SDS011;7941;50.966;6.978;2022-10-16T02:40:58;3.13;;;1.37;;
15681;SDS011;7941;50.966;6.978;2022-10-16T02:43:25;1.83;;;1.70;;
15681;SDS011;7941;50.966;6.978;2022-10-16T02:45:51;2.70;;;1.30;;
15681;SDS011;7941;50.966;6.978;2022-10-16T02:48:17;2.87;;;1.40;;
15681;SDS011;7941;50.966;6.978;2022-10-16T02:50:43;1.80;;;1.53;;
15681;SDS011;7941;50.966;6.978;2022-10-16T02:53:09;2.37;;;1.67;;
15681;SDS011;7941;50.966;6.978;2022-10-16T02:55:36;1.60;;;1.30;;
15681;SDS011;7941;50.966;6.978;2022-10-16T02:58:02;2.40;;;1.60;;
15681;SDS011;7941;50.966;6.978;2022-10-16T03:00:28;1.80;;;1.50;;
15681;SDS011;7941;50.966;6.978;2022-10-16T03:02:54;1.60;;;1.50;;
15681;SDS011;7941;50.966;6.978;2022-10-16T03:05:20;3.20;;;1.47;;
15681;SDS011;7941;50.966;6.978;2022-10-16T03:07:46;1.40;;;1.30;;
15681;SDS011;7941;50.966;6.978;2022-10-16T03:10:12;3.80;;;1.50;;
15681;SDS011;7941;50.966;6.978;2022-10-16T03:12:38;2.33;;;1.63;;
15681;SDS011;7941;50.966;6.978;2022-10-16T03:15:05;1.70;;;1.60;;
15681;SDS011;7941;50.966;6.978;2022-10-16T03:17:32;1.60;;;1.50;;
15681;SDS011;7941;50.966;6.978;2022-10-16T03:19:58;1.57;;;1.40;;
15681;SDS011;7941;50.966;6.978;2022-10-16T03:22:24;1.50;;;1.40;;
15681;SDS011;7941;50.966;6.978;2022-10-16T03:24:50;3.00;;;1.50;;
15681;SDS011;7941;50.966;6.978;2022-10-16T03:27:17;2.90;;;1.53;;
15681;SDS011;7941;50.966;6.978;2022-10-16T03:29:43;2.17;;;1.27;;
15681;SDS011;7941;50.966;6.978;2022-10-16T03:32:09;1.77;;;1.60;;
15681;SDS011;7941;50.966;6.978;2022-10-16T03:34:35;1.73;;;1.00;;
15681;SDS011;7941;50.966;6.978;2022-10-16T03:37:01;1.90;;;1.33;;
15681;SDS011;7941;50.966;6.978;2022-10-16T03:39:27;1.77;;;1.30;;
15681;SDS011;7941;50.966;6.978;2022-10-16T03:41:53;1.33;;;1.23;;
15681;SDS011;7941;50.966;6.978;2022-10-16T03:44:19;2.10;;;1.40;;
15681;SDS011;7941;50.966;6.978;2022-10-16T03:46:46;1.57;;;1.27;;
15681;SDS011;7941;50.966;6.978;2022-10-16T03:49:12;3.73;;;1.30;;
15681;SDS011;7941;50.966;6.978;2022-10-16T03:51:38;1.30;;;1.20;;
15681;SDS011;7941;50.966;6.978;2022-10-16T03:54:04;1.30;;;1.10;;
15681;SDS011;7941;50.966;6.978;2022-10-16T03:56:31;3.00;;;1.80;;
15681;SDS011;7941;50.966;6.978;2022-10-16T03:58:57;3.00;;;1.43;;
15681;SDS011;7941;50.966;6.978;2022-10-16T04:01:23;2.10;;;1.30;;
15681;SDS011;7941;50.966;6.978;2022-10-16T04:03:49;1.73;;;1.50;;
15681;SDS011;7941;50.966;6.978;2022-10-16T04:06:15;2.17;;;1.70;;
15681;SDS011;7941;50.966;6.978;2022-10-16T04:08:44;1.47;;;1.23;;
15681;SDS011;7941;50.966;6.978;2022-10-16T04:11:11;1.70;;;1.57;;
15681;SDS011;7941;50.966;6.978;2022-10-16T04:13:37;1.90;;;1.40;;
15681;SDS011;7941;50.966;6.978;2022-10-16T04:16:03;1.50;;;1.40;;
15681;SDS011;7941;50.966;6.978;2022-10-16T04:18:29;1.83;;;1.40;;
15681;SDS011;7941;50.966;6.978;2022-10-16T04:20:56;1.40;;;1.40;;
15681;SDS011;7941;50.966;6.978;2022-10-16T04:23:22;1.90;;;1.40;;
15681;SDS011;7941;50.966;6.978;2022-10-16T04:25:48;1.30;;;1.30;;
15681;SDS011;7941;50.966;6.978;2022-10-16T04:28:14;1.63;;;1.40;;
15681;SDS011;7941;50.966;6.978;2022-10-16T04:30:40;1.77;;;1.20;;
15681;SDS011;7941;50.966;6.978;2022-10-16T04:33:08;2.37;;;1.87;;
15681;SDS011;7941;50.966;6.978;2022-10-16T04:35:35;2.10;;;1.43;;
15681;SDS011;7941;50.966;6.978;2022-10-16T04:38:01;1.60;;;1.50;;
15681;SDS011;7941;50.966;6.978;2022-10-16T04:40:27;1.93;;;1.30;;
15681;SDS011;7941;50.966;6.978;2022-10-16T04:42:53;2.40;;;1.20;;
15681;SDS011;7941;50.966;6.978;2022-10-16T04:45:19;1.63;;;1.53;;
15681;SDS011;7941;50.966;6.978;2022-10-16T04:47:45;2.20;;;2.00;;
15681;SDS011;7941;50.966;6.978;2022-10-16T04:50:11;4.90;;;1.90;;
15681;SDS011;7941;50.966;6.978;2022-10-16T04:52:37;3.50;;;3.23;;
15681;SDS011;7941;50.966;6.978;2022-10-16T04:55:04;1.83;;;1.73;;
15681;SDS011;7941;50.966;6.978;2022-10-16T04:57:30;3.90;;;1.50;;
15681;SDS011;7941;50.966;6.978;2022-10-16T04:59:58;2.83;;;2.60;;
15681;SDS011;7941;50.966;6.978;2022-10-16T05:02:24;1.77;;;1.67;;
15681;SDS011;7941;50.966;6.978;2022-10-16T05:04:50;3.00;;;2.53;;
15681;SDS011;7941;50.966;6.978;2022-10-16T05:07:17;1.70;;;1.60;;
15681;SDS011;7941;50.966;6.978;2022-10-16T05:09:43;1.97;;;1.50;;
15681;SDS011;7941;50.966;6.978;2022-10-16T05:12:09;3.13;;;1.87;;
15681;SDS011;7941;50.966;6.978;2022-10-16T05:14:35;1.77;;;1.50;;
15681;SDS011;7941;50.966;6.978;2022-10-16T05:17:02;2.87;;;2.67;;
15681;SDS011;7941;50.966;6.978;2022-10-16T05:19:28;4.90;;;1.90;;
15681;SDS011;7941;50.966;6.978;2022-10-16T05:21:54;2.10;;;1.90;;
15681;SDS011;7941;50.966;6.978;2022-10-16T05:24:20;2.63;;;1.90;;
15681;SDS011;7941;50.966;6.978;2022-10-16T05:26:46;1.60;;;1.40;;
15681;SDS011;7941;50.966;6.978;2022-10-16T05:29:12;2.67;;;1.77;;
15681;SDS011;7941;50.966;6.978;2022-10-16T05:31:38;2.17;;;2.03;;
15681;SDS011;7941;50.966;6.978;2022-10-16T05:34:05;2.70;;;2.50;;
15681;SDS011;7941;50.966;6.978;2022-10-16T05:36:31;5.50;;;1.70;;
15681;SDS011;7941;50.966;6.978;2022-10-16T05:38:57;1.57;;;1.47;;
15681;SDS011;7941;50.966;6.978;2022-10-16T05:41:23;5.77;;;5.27;;
15681;SDS011;7941;50.966;6.978;2022-10-16T05:43:51;2.53;;;2.33;;
15681;SDS011;7941;50.966;6.978;2022-10-16T05:46:17;2.40;;;1.90;;
15681;SDS011;7941;50.966;6.978;2022-10-16T05:48:43;1.77;;;1.50;;
15681;SDS011;7941;50.966;6.978;2022-10-16T05:51:11;2.47;;;1.50;;
15681;SDS011;7941;50.966;6.978;2022-10-16T05:53:38;1.87;;;1.60;;
15681;SDS011;7941;50.966;6.978;2022-10-16T05:56:04;2.53;;;2.43;;
15681;SDS011;7941;50.966;6.978;2022-10-16T05:58:31;6.17;;;2.30;;
15681;SDS011;7941;50.966;6.978;2022-10-16T06:00:59;2.47;;;2.27;;
15681;SDS011;7941;50.966;6.978;2022-10-16T06:03:25;2.60;;;2.20;;
15681;SDS011;7941;50.966;6.978;2022-10-16T06:05:52;1.80;;;1.67;;
15681;SDS011;7941;50.966;6.978;2022-10-16T06:08:18;3.03;;;2.10;;
15681;SDS011;7941;50.966;6.978;2022-10-16T06:10:45;1.80;;;1.70;;
15681;SDS011;7941;50.966;6.978;2022-10-16T06:13:12;2.73;;;2.03;;
15681;SDS011;7941;50.966;6.978;2022-10-16T06:15:39;2.10;;;1.90;;
15681;SDS011;7941;50.966;6.978;2022-10-16T06:18:07;16.77;;;11.33;;
15681;SDS011;7941;50.966;6.978;2022-10-16T06:20:33;12.20;;;8.80;;
15681;SDS011;7941;50.966;6.978;2022-10-16T06:22:59;4.53;;;4.00;;
15681;SDS011;7941;50.966;6.978;2022-10-16T06:25:25;2.03;;;1.93;;
15681;SDS011;7941;50.966;6.978;2022-10-16T06:27:51;2.50;;;2.27;;
15681;SDS011;7941;50.966;6.978;2022-10-16T06:30:17;2.80;;;2.60;;
15681;SDS011;7941;50.966;6.978;2022-10-16T06:32:43;2.43;;;2.23;;
15681;SDS011;7941;50.966;6.978;2022-10-16T06:35:10;2.70;;;2.13;;
15681;SDS011;7941;50.966;6.978;2022-10-16T06:37:36;2.43;;;2.23;;
15681;SDS011;7941;50.966;6.978;2022-10-16T06:40:02;3.13;;;2.00;;
15681;SDS011;7941;50.966;6.978;2022-10-16T06:42:29;2.60;;;2.33;;
15681;SDS011;7941;50.966;6.978;2022-10-16T06:44:56;2.77;;;2.37;;
15681;SDS011;7941;50.966;6.978;2022-10-16T06:47:22;5.33;;;1.97;;
15681;SDS011;7941;50.966;6.978;2022-10-16T06:49:48;2.10;;;2.00;;
15681;SDS011;7941;50.966;6.978;2022-10-16T06:52:14;2.10;;;1.90;;
15681;SDS011;7941;50.966;6.978;2022-10-16T06:54:41;2.87;;;2.67;;
15681;SDS011;7941;50.966;6.978;2022-10-16T06:57:07;4.10;;;2.37;;
15681;SDS011;7941;50.966;6.978;2022-10-16T06:59:33;2.80;;;2.10;;
15681;SDS011;7941;50.966;6.978;2022-10-16T07:01:59;2.00;;;1.80;;
15681;SDS011;7941;50.966;6.978;2022-10-16T07:04:25;2.10;;;1.90;;
15681;SDS011;7941;50.966;6.978;2022-10-16T07:06:51;3.10;;;1.77;;
15681;SDS011;7941;50.966;6.978;2022-10-16T07:09:17;3.73;;;2.03;;
15681;SDS011;7941;50.966;6.978;2022-10-16T07:11:43;3.53;;;1.70;;
15681;SDS011;7941;50.966;6.978;2022-10-16T07:14:16;1.85;;;1.73;;
15681;SDS011;7941;50.966;6.978;2022-10-16T07:16:43;2.83;;;1.90;;
15681;SDS011;7941;50.966;6.978;2022-10-16T07:19:09;1.97;;;1.70;;
15681;SDS011;7941;50.966;6.978;2022-10-16T07:21:37;3.17;;;2.00;;
15681;SDS011;7941;50.966;6.978;2022-10-16T07:24:04;2.27;;;1.50;;
15681;SDS011;7941;50.966;6.978;2022-10-16T07:26:31;2.93;;;1.93;;
15681;SDS011;7941;50.966;6.978;2022-10-16T07:28:58;1.90;;;1.73;;
15681;SDS011;7941;50.966;6.978;2022-10-16T07:31:24;2.70;;;2.00;;
15681;SDS011;7941;50.966;6.978;2022-10-16T07:33:50;2.93;;;1.83;;
15681;SDS011;7941;50.966;6.978;2022-10-16T07:36:17;1.80;;;1.70;;
15681;SDS011;7941;50.966;6.978;2022-10-16T07:38:44;4.23;;;1.60;;
15681;SDS011;7941;50.966;6.978;2022-10-16T07:41:14;3.33;;;1.90;;
15681;SDS011;7941;50.966;6.978;2022-10-16T07:43:40;3.03;;;1.77;;
15681;SDS011;7941;50.966;6.978;2022-10-16T07:46:11;3.83;;;2.03;;
15681;SDS011;7941;50.966;6.978;2022-10-16T07:48:37;3.13;;;2.40;;
15681;SDS011;7941;50.966;6.978;2022-10-16T07:51:04;3.23;;;2.00;;
15681;SDS011;7941;50.966;6.978;2022-10-16T07:53:31;3.40;;;2.70;;
15681;SDS011;7941;50.966;6.978;2022-10-16T07:55:58;2.20;;;1.87;;
15681;SDS011;7941;50.966;6.978;2022-10-16T07:58:24;2.10;;;1.80;;
15681;SDS011;7941;50.966;6.978;2022-10-16T08:00:50;2.10;;;1.90;;
15681;SDS011;7941;50.966;6.978;2022-10-16T08:03:17;4.23;;;1.80;;
15681;SDS011;7941;50.966;6.978;2022-10-16T08:05:43;2.20;;;1.83;;
15681;SDS011;7941;50.966;6.978;2022-10-16T08:08:12;2.33;;;1.53;;
15681;SDS011;7941;50.966;6.978;2022-10-16T08:10:38;2.20;;;2.10;;
15681;SDS011;7941;50.966;6.978;2022-10-16T08:13:05;3.07;;;1.97;;
15681;SDS011;7941;50.966;6.978;2022-10-16T08:15:31;5.00;;;2.80;;
15681;SDS011;7941;50.966;6.978;2022-10-16T08:18:01;2.17;;;1.67;;
15681;SDS011;7941;50.966;6.978;2022-10-16T08:20:28;2.47;;;1.87;;
15681;SDS011;7941;50.966;6.978;2022-10-16T08:22:54;2.87;;;1.80;;
15681;SDS011;7941;50.966;6.978;2022-10-16T08:25:24;1.93;;;1.50;;
15681;SDS011;7941;50.966;6.978;2022-10-16T08:27:50;3.50;;;2.10;;
15681;SDS011;7941;50.966;6.978;2022-10-16T08:30:19;2.50;;;1.60;;
15681;SDS011;7941;50.966;6.978;2022-10-16T08:32:45;1.23;;;1.10;;
15681;SDS011;7941;50.966;6.978;2022-10-16T08:35:12;2.60;;;1.70;;
15681;SDS011;7941;50.966;6.978;2022-10-16T08:37:39;2.70;;;1.90;;
15681;SDS011;7941;50.966;6.978;2022-10-16T08:40:06;2.20;;;1.67;;
15681;SDS011;7941;50.966;6.978;2022-10-16T08:50:26;2.87;;;1.43;;
15681;SDS011;7941;50.966;6.978;2022-10-16T08:52:53;3.10;;;2.10;;
15681;SDS011;7941;50.966;6.978;2022-10-16T08:55:28;1.57;;;1.17;;
15681;SDS011;7941;50.966;6.978;2022-10-16T08:57:55;4.60;;;1.97;;
15681;SDS011;7941;50.966;6.978;2022-10-16T09:00:21;2.10;;;0.90;;
15681;SDS011;7941;50.966;6.978;2022-10-16T09:08:01;1.17;;;0.90;;
15681;SDS011;7941;50.966;6.978;2022-10-16T09:18:16;1.77;;;1.10;;
15681;SDS011;7941;50.966;6.978;2022-10-16T09:25:43;2.20;;;1.13;;
15681;SDS011;7941;50.966;6.978;2022-10-16T09:28:09;2.10;;;1.17;;
15681;SDS011;7941;50.966;6.978;2022-10-16T09:30:35;2.83;;;1.10;;
15681;SDS011;7941;50.966;6.978;2022-10-16T09:33:03;1.50;;;0.80;;
15681;SDS011;7941;50.966;6.978;2022-10-16T09:37:56;2.73;;;1.03;;
15681;SDS011;7941;50.966;6.978;2022-10-16T09:43:01;2.80;;;1.17;;
15681;SDS011;7941;50.966;6.978;2022-10-16T09:45:28;1.93;;;1.17;;
15681;SDS011;7941;50.966;6.978;2022-10-16T09:47:54;1.40;;;0.93;;
15681;SDS011;7941;50.966;6.978;2022-10-16T09:50:27;1.43;;;0.80;;
15681;SDS011;7941;50.966;6.978;2022-10-16T09:53:04;0.80;;;0.60;;
15681;SDS011;7941;50.966;6.978;2022-10-16T09:55:30;1.90;;;0.67;;
15681;SDS011;7941;50.966;6.978;2022-10-16T09:57:56;2.03;;;0.80;;
15681;SDS011;7941;50.966;6.978;2022-10-16T10:00:23;2.07;;;0.90;;
15681;SDS011;7941;50.966;6.978;2022-10-16T10:02:50;1.43;;;0.70;;
15681;SDS011;7941;50.966;6.978;2022-10-16T10:05:21;1.17;;;0.83;;
15681;SDS011;7941;50.966;6.978;2022-10-16T10:07:52;1.60;;;0.60;;
15681;SDS011;7941;50.966;6.978;2022-10-16T10:10:21;2.20;;;0.80;;
15681;SDS011;7941;50.966;6.978;2022-10-16T10:12:47;1.80;;;0.80;;
15681;SDS011;7941;50.966;6.978;2022-10-16T10:15:14;2.07;;;0.70;;
15681;SDS011;7941;50.966;6.978;2022-10-16T10:22:51;3.17;;;0.83;;
15681;SDS011;7941;50.966;6.978;2022-10-16T10:30:42;2.90;;;1.33;;
15681;SDS011;7941;50.966;6.978;2022-10-16T10:43:49;3.30;;;0.87;;
15681;SDS011;7941;50.966;6.978;2022-10-16T10:46:41;1.33;;;0.83;;
15681;SDS011;7941;50.966;6.978;2022-10-16T10:54:31;3.33;;;0.80;;
15681;SDS011;7941;50.966;6.978;2022-10-16T10:57:42;1.10;;;0.50;;
15681;SDS011;7941;50.966;6.978;2022-10-16T11:02:38;2.20;;;0.60;;
15681;SDS011;7941;50.966;6.978;2022-10-16T11:07:49;2.77;;;0.70;;
15681;SDS011;7941;50.966;6.978;2022-10-16T11:10:27;3.40;;;0.90;;
15681;SDS011;7941;50.966;6.978;2022-10-16T11:12:55;2.30;;;0.80;;
15681;SDS011;7941;50.966;6.978;2022-10-16T11:15:39;1.60;;;0.60;;
15681;SDS011;7941;50.966;6.978;2022-10-16T11:20:32;1.40;;;0.73;;
15681;SDS011;7941;50.966;6.978;2022-10-16T11:26:01;4.20;;;0.87;;
15681;SDS011;7941;50.966;6.978;2022-10-16T11:28:49;1.80;;;0.80;;
15681;SDS011;7941;50.966;6.978;2022-10-16T11:31:19;1.70;;;0.50;;
15681;SDS011;7941;50.966;6.978;2022-10-16T11:44:06;2.10;;;0.67;;
15681;SDS011;7941;50.966;6.978;2022-10-16T11:46:35;1.23;;;0.60;;
15681;SDS011;7941;50.966;6.978;2022-10-16T11:56:37;1.37;;;0.60;;
15681;SDS011;7941;50.966;6.978;2022-10-16T12:01:38;2.40;;;0.73;;
15681;SDS011;7941;50.966;6.978;2022-10-16T12:04:30;0.87;;;0.70;;
15681;SDS011;7941;50.966;6.978;2022-10-16T12:07:06;0.63;;;0.60;;
15681;SDS011;7941;50.966;6.978;2022-10-16T12:09:35;1.57;;;0.90;;
15681;SDS011;7941;50.966;6.978;2022-10-16T12:12:02;3.23;;;0.70;;
15681;SDS011;7941;50.966;6.978;2022-10-16T12:19:39;1.53;;;0.60;;
15681;SDS011;7941;50.966;6.978;2022-10-16T12:22:15;1.50;;;0.67;;
15681;SDS011;7941;50.966;6.978;2022-10-16T12:24:43;2.27;;;0.80;;
15681;SDS011;7941;50.966;6.978;2022-10-16T12:27:24;1.80;;;0.53;;
15681;SDS011;7941;50.966;6.978;2022-10-16T12:29:57;2.03;;;0.60;;
15681;SDS011;7941;50.966;6.978;2022-10-16T12:32:29;4.07;;;0.73;;
15681;SDS011;7941;50.966;6.978;2022-10-16T12:34:55;1.27;;;0.50;;
15681;SDS011;7941;50.966;6.978;2022-10-16T12:37:26;0.80;;;0.40;;
15681;SDS011;7941;50.966;6.978;2022-10-16T12:39:54;2.63;;;0.90;;
15681;SDS011;7941;50.966;6.978;2022-10-16T12:44:54;2.10;;;0.80;;
15681;SDS011;7941;50.966;6.978;2022-10-16T12:49:51;3.27;;;1.63;;
15681;SDS011;7941;50.966;6.978;2022-10-16T12:54:59;1.60;;;1.03;;
15681;SDS011;7941;50.966;6.978;2022-10-16T13:05:25;2.03;;;0.70;;
15681;SDS011;7941;50.966;6.978;2022-10-16T13:28:21;3.17;;;1.40;;
15681;SDS011;7941;50.966;6.978;2022-10-16T13:30:54;0.83;;;0.80;;
15681;SDS011;7941;50.966;6.978;2022-10-16T13:33:38;1.87;;;0.80;;
15681;SDS011;7941;50.966;6.978;2022-10-16T13:38:35;4.93;;;1.17;;
15681;SDS011;7941;50.966;6.978;2022-10-16T13:41:02;0.80;;;0.80;;
15681;SDS011;7941;50.966;6.978;2022-10-16T13:45:56;2.33;;;1.40;;
15681;SDS011;7941;50.966;6.978;2022-10-16T13:48:23;3.83;;;2.60;;
15681;SDS011;7941;50.966;6.978;2022-10-16T13:50:59;6.87;;;1.20;;
15681;SDS011;7941;50.966;6.978;2022-10-16T13:53:25;0.80;;;0.80;;
15681;SDS011;7941;50.966;6.978;2022-10-16T13:55:52;2.10;;;1.80;;
15681;SDS011;7941;50.966;6.978;2022-10-16T13:58:18;1.90;;;1.67;;
15681;SDS011;7941;50.966;6.978;2022-10-16T14:03:30;1.40;;;1.00;;
15681;SDS011;7941;50.966;6.978;2022-10-16T14:05:59;1.80;;;0.73;;
15681;SDS011;7941;50.966;6.978;2022-10-16T14:08:26;1.80;;;0.87;;
15681;SDS011;7941;50.966;6.978;2022-10-16T14:10:57;2.17;;;0.83;;
15681;SDS011;7941;50.966;6.978;2022-10-16T14:13:29;0.60;;;0.50;;
15681;SDS011;7941;50.966;6.978;2022-10-16T14:15:56;1.80;;;0.70;;
15681;SDS011;7941;50.966;6.978;2022-10-16T14:18:24;2.20;;;0.70;;
15681;SDS011;7941;50.966;6.978;2022-10-16T14:20:51;0.87;;;0.80;;
15681;SDS011;7941;50.966;6.978;2022-10-16T14:23:22;0.77;;;0.70;;
15681;SDS011;7941;50.966;6.978;2022-10-16T14:25:48;2.33;;;0.87;;
15681;SDS011;7941;50.966;6.978;2022-10-16T14:28:16;1.00;;;0.67;;
15681;SDS011;7941;50.966;6.978;2022-10-16T14:30:53;1.33;;;0.80;;
15681;SDS011;7941;50.966;6.978;2022-10-16T14:33:21;1.60;;;0.90;;
15681;SDS011;7941;50.966;6.978;2022-10-16T14:35:57;1.33;;;0.93;;
15681;SDS011;7941;50.966;6.978;2022-10-16T14:38:24;1.80;;;1.00;;
15681;SDS011;7941;50.966;6.978;2022-10-16T14:40:51;1.60;;;1.20;;
15681;SDS011;7941;50.966;6.978;2022-10-16T14:43:21;2.83;;;1.40;;
15681;SDS011;7941;50.966;6.978;2022-10-16T14:45:55;1.57;;;1.00;;
15681;SDS011;7941;50.966;6.978;2022-10-16T14:48:22;2.07;;;1.03;;
15681;SDS011;7941;50.966;6.978;2022-10-16T14:50:48;1.57;;;1.47;;
15681;SDS011;7941;50.966;6.978;2022-10-16T14:53:15;2.10;;;1.30;;
15681;SDS011;7941;50.966;6.978;2022-10-16T14:55:41;1.40;;;1.30;;
15681;SDS011;7941;50.966;6.978;2022-10-16T14:58:18;4.37;;;1.00;;
15681;SDS011;7941;50.966;6.978;2022-10-16T15:00:44;1.53;;;1.10;;
15681;SDS011;7941;50.966;6.978;2022-10-16T15:03:11;1.17;;;0.90;;
15681;SDS011;7941;50.966;6.978;2022-10-16T15:05:37;5.97;;;1.30;;
15681;SDS011;7941;50.966;6.978;2022-10-16T15:08:03;1.87;;;1.37;;
15681;SDS011;7941;50.966;6.978;2022-10-16T15:10:30;1.43;;;1.27;;
15681;SDS011;7941;50.966;6.978;2022-10-16T15:12:57;1.67;;;1.13;;
15681;SDS011;7941;50.966;6.978;2022-10-16T15:15:30;3.57;;;1.00;;
15681;SDS011;7941;50.966;6.978;2022-10-16T15:17:58;1.83;;;1.23;;
15681;SDS011;7941;50.966;6.978;2022-10-16T15:20:29;1.67;;;1.10;;
15681;SDS011;7941;50.966;6.978;2022-10-16T15:22:59;1.30;;;1.20;;
15681;SDS011;7941;50.966;6.978;2022-10-16T15:25:30;1.40;;;1.30;;
15681;SDS011;7941;50.966;6.978;2022-10-16T15:27:57;1.37;;;1.20;;
15681;SDS011;7941;50.966;6.978;2022-10-16T15:30:23;1.53;;;1.43;;
15681;SDS011;7941;50.966;6.978;2022-10-16T15:32:50;3.20;;;2.13;;
15681;SDS011;7941;50.966;6.978;2022-10-16T15:35:16;2.43;;;1.30;;
15681;SDS011;7941;50.966;6.978;2022-10-16T15:37:43;1.40;;;1.10;;
15681;SDS011;7941;50.966;6.978;2022-10-16T15:40:09;1.23;;;1.13;;
15681;SDS011;7941;50.966;6.978;2022-10-16T15:42:36;1.53;;;1.20;;
15681;SDS011;7941;50.966;6.978;2022-10-16T15:45:02;2.87;;;1.30;;
15681;SDS011;7941;50.966;6.978;2022-10-16T15:47:29;4.63;;;1.60;;
15681;SDS011;7941;50.966;6.978;2022-10-16T15:49:55;2.10;;;1.30;;
15681;SDS011;7941;50.966;6.978;2022-10-16T15:52:21;2.93;;;1.50;;
15681;SDS011;7941;50.966;6.978;2022-10-16T15:54:48;2.33;;;1.40;;
15681;SDS011;7941;50.966;6.978;2022-10-16T15:57:14;3.43;;;1.40;;
15681;SDS011;7941;50.966;6.978;2022-10-16T15:59:40;3.00;;;1.90;;
15681;SDS011;7941;50.966;6.978;2022-10-16T16:02:07;2.60;;;2.17;;
15681;SDS011;7941;50.966;6.978;2022-10-16T16:04:34;4.20;;;1.90;;
15681;SDS011;7941;50.966;6.978;2022-10-16T16:07:00;2.37;;;1.93;;
15681;SDS011;7941;50.966;6.978;2022-10-16T16:09:28;2.43;;;1.87;;
15681;SDS011;7941;50.966;6.978;2022-10-16T16:11:55;3.10;;;2.00;;
15681;SDS011;7941;50.966;6.978;2022-10-16T16:14:21;2.33;;;1.87;;
15681;SDS011;7941;50.966;6.978;2022-10-16T16:16:49;4.03;;;2.50;;
15681;SDS011;7941;50.966;6.978;2022-10-16T16:19:15;4.47;;;2.40;;
15681;SDS011;7941;50.966;6.978;2022-10-16T16:21:46;2.90;;;2.60;;
15681;SDS011;7941;50.966;6.978;2022-10-16T16:24:12;4.53;;;2.57;;
15681;SDS011;7941;50.966;6.978;2022-10-16T16:26:39;4.07;;;3.00;;
15681;SDS011;7941;50.966;6.978;2022-10-16T16:29:12;3.37;;;2.60;;
15681;SDS011;7941;50.966;6.978;2022-10-16T16:31:39;2.00;;;1.80;;
15681;SDS011;7941;50.966;6.978;2022-10-16T16:34:05;2.93;;;2.53;;
15681;SDS011;7941;50.966;6.978;2022-10-16T16:36:32;4.80;;;2.90;;
15681;SDS011;7941;50.966;6.978;2022-10-16T16:38:58;2.47;;;2.27;;
15681;SDS011;7941;50.966;6.978;2022-10-16T16:41:25;5.17;;;3.30;;
15681;SDS011;7941;50.966;6.978;2022-10-16T16:43:52;2.40;;;2.20;;
15681;SDS011;7941;50.966;6.978;2022-10-16T16:46:19;3.07;;;2.13;;
15681;SDS011;7941;50.966;6.978;2022-10-16T16:48:46;3.07;;;2.50;;
15681;SDS011;7941;50.966;6.978;2022-10-16T16:51:13;3.17;;;2.40;;
15681;SDS011;7941;50.966;6.978;2022-10-16T16:53:41;4.70;;;2.50;;
15681;SDS011;7941;50.966;6.978;2022-10-16T16:56:08;4.27;;;2.63;;
15681;SDS011;7941;50.966;6.978;2022-10-16T16:58:34;3.30;;;2.60;;
15681;SDS011;7941;50.966;6.978;2022-10-16T17:01:01;2.10;;;1.87;;
15681;SDS011;7941;50.966;6.978;2022-10-16T17:03:28;8.20;;;7.40;;
15681;SDS011;7941;50.966;6.978;2022-10-16T17:05:59;5.53;;;5.03;;
15681;SDS011;7941;50.966;6.978;2022-10-16T17:08:25;5.13;;;3.70;;
15681;SDS011;7941;50.966;6.978;2022-10-16T17:10:52;3.27;;;2.43;;
15681;SDS011;7941;50.966;6.978;2022-10-16T17:13:27;5.10;;;2.80;;
15681;SDS011;7941;50.966;6.978;2022-10-16T17:15:54;3.30;;;2.90;;
15681;SDS011;7941;50.966;6.978;2022-10-16T17:18:22;2.00;;;1.80;;
15681;SDS011;7941;50.966;6.978;2022-10-16T17:20:49;10.73;;;1.93;;
15681;SDS011;7941;50.966;6.978;2022-10-16T17:23:16;4.37;;;1.80;;
15681;SDS011;7941;50.966;6.978;2022-10-16T17:25:43;2.53;;;1.70;;
15681;SDS011;7941;50.966;6.978;2022-10-16T17:28:10;2.17;;;1.90;;
15681;SDS011;7941;50.966;6.978;2022-10-16T17:30:36;3.17;;;2.00;;
15681;SDS011;7941;50.966;6.978;2022-10-16T17:33:03;2.57;;;2.20;;
15681;SDS011;7941;50.966;6.978;2022-10-16T17:35:29;3.30;;;2.53;;
15681;SDS011;7941;50.966;6.978;2022-10-16T17:37:55;5.73;;;2.10;;